createdAt,value
2017-05-27T04:46:19.510Z,66.81
2017-05-27T04:46:44.978Z,66.81
2017-05-27T04:47:10.442Z,66.81
2017-05-27T04:47:35.911Z,66.81
2017-05-27T04:48:01.373Z,66.81
2017-05-27T04:48:26.860Z,66.81
2017-05-27T04:48:52.349Z,66.61
2017-05-27T04:49:17.855Z,66.52
2017-05-27T04:49:43.371Z,66.52
2017-05-27T04:50:08.861Z,66.14
2017-05-27T04:50:34.369Z,66.52
2017-05-27T04:50:59.847Z,66.52
2017-05-27T04:51:25.327Z,66.52
2017-05-27T04:51:50.790Z,66.61
2017-05-27T04:52:16.249Z,66.14
2017-05-27T04:52:41.737Z,66.42
2017-05-27T04:53:07.199Z,66.04
2017-05-27T04:53:32.668Z,65.94
2017-05-27T04:53:58.161Z,66.23
2017-05-27T04:54:23.643Z,66.17
2017-05-27T04:54:49.097Z,66.27
2017-05-27T04:55:14.572Z,65.78
2017-05-27T04:55:40.046Z,65.69
2017-05-27T04:56:05.526Z,65.78
2017-05-27T04:56:30.986Z,65.69
2017-05-27T04:56:56.458Z,66.07
2017-05-27T04:57:21.927Z,65.5
2017-05-27T04:57:47.439Z,65.2
2017-05-27T04:58:12.901Z,65.01
2017-05-27T04:58:38.375Z,65.3
2017-05-27T04:59:03.847Z,65.5
2017-05-27T04:59:29.327Z,65.11
2017-05-27T04:59:54.822Z,65.11
2017-05-27T05:00:20.331Z,65.3
2017-05-27T05:00:45.834Z,64.86
2017-05-27T05:01:11.320Z,65.33
2017-05-27T05:01:36.811Z,64.73
2017-05-27T05:02:02.273Z,64.86
2017-05-27T05:02:27.761Z,64.47
2017-05-27T05:02:53.242Z,64.47
2017-05-27T05:03:18.709Z,64.47
2017-05-27T05:03:44.228Z,64.47
2017-05-27T05:04:09.696Z,63.79
2017-05-27T05:04:35.164Z,64.28
2017-05-27T05:05:00.645Z,63.6
2017-05-27T05:05:26.117Z,63.6
2017-05-27T05:05:51.553Z,63.31
2017-05-27T05:06:17.041Z,63.51
2017-05-27T05:06:42.553Z,63.7
2017-05-27T05:07:08.067Z,63.02
2017-05-27T05:08:21.858Z,63.41
2017-05-27T05:08:47.324Z,63.12
2017-05-27T05:09:12.793Z,63.22
2017-05-27T05:09:38.252Z,63.41
2017-05-27T05:10:03.725Z,63.31
2017-05-27T05:10:29.198Z,63.12
2017-05-27T05:10:54.675Z,63.12
2017-05-27T05:11:20.140Z,62.83
2017-05-27T05:11:45.637Z,63.09
2017-05-27T05:12:11.097Z,62.9
2017-05-27T05:12:36.581Z,63.22
2017-05-27T05:13:02.103Z,63.6
2017-05-27T05:13:27.525Z,63.22
2017-05-27T05:13:53.028Z,63.12
2017-05-27T05:14:18.515Z,63.12
2017-05-27T05:14:44.023Z,62.93
2017-05-27T05:15:09.513Z,63.02
2017-05-27T05:15:35.004Z,62.93
2017-05-27T05:16:00.475Z,63.12
2017-05-27T05:16:25.955Z,63.02
2017-05-27T05:16:51.457Z,62.83
2017-05-27T05:17:16.934Z,62.83
2017-05-27T05:17:42.449Z,62.93
2017-05-27T05:18:07.906Z,62.93
2017-05-27T05:18:33.400Z,63.12
2017-05-27T05:18:58.895Z,63.12
2017-05-27T05:19:24.343Z,63.22
2017-05-27T05:19:49.905Z,63.41
2017-05-27T05:20:15.360Z,63.02
2017-05-27T05:20:40.815Z,63.12
2017-05-27T05:21:06.280Z,63.12
2017-05-27T05:21:31.769Z,62.93
2017-05-27T05:21:57.228Z,62.93
2017-05-27T05:22:22.696Z,63.51
2017-05-27T05:22:48.169Z,63.02
2017-05-27T05:23:13.663Z,62.93
2017-05-27T05:23:39.138Z,62.57
2017-05-27T05:24:04.610Z,62.57
2017-05-27T05:24:30.095Z,62.26
2017-05-27T05:24:55.561Z,62.19
2017-05-27T05:25:21.048Z,62.38
2017-05-27T05:25:46.538Z,62.48
2017-05-27T05:26:11.988Z,62.29
2017-05-27T05:26:37.460Z,62.38
2017-05-27T05:27:02.926Z,62.29
2017-05-27T05:27:28.412Z,62.29
2017-05-27T05:27:53.889Z,62.29
2017-05-27T05:28:19.357Z,62.29
2017-05-27T05:28:44.826Z,62.09
2017-05-27T05:29:10.309Z,61.71
2017-05-27T05:29:35.796Z,61.42
2017-05-27T05:30:01.297Z,61.32
2017-05-27T05:30:26.763Z,61.22
2017-05-27T05:30:52.238Z,61.42
2017-05-27T05:31:17.735Z,61.32
2017-05-27T05:31:43.229Z,61.8
2017-05-27T05:32:08.707Z,61.13
2017-05-27T05:32:34.181Z,60.94
2017-05-27T05:32:59.659Z,60.94
2017-05-27T05:33:25.150Z,60.58
2017-05-27T05:33:50.671Z,61.22
2017-05-27T05:34:16.134Z,60.94
2017-05-27T05:34:41.611Z,60.84
2017-05-27T05:35:07.112Z,61.07
2017-05-27T05:35:32.590Z,61.13
2017-05-27T05:35:58.077Z,60.84
2017-05-27T05:36:23.575Z,60.97
2017-05-27T05:36:49.073Z,60.97
2017-05-27T05:37:14.553Z,60.68
2017-05-27T05:37:40.011Z,60.87
2017-05-27T05:38:05.509Z,61.04
2017-05-27T05:38:30.969Z,60.65
2017-05-27T05:38:56.444Z,60.77
2017-05-27T05:39:21.931Z,60.75
2017-05-27T05:39:47.397Z,60.68
2017-05-27T05:40:12.906Z,60.77
2017-05-27T05:40:38.378Z,60.68
2017-05-27T05:41:03.844Z,60.97
2017-05-27T05:41:29.330Z,60.87
2017-05-27T05:41:54.772Z,61.25
2017-05-27T05:42:20.262Z,61.16
2017-05-27T05:42:45.708Z,60.77
2017-05-27T05:43:11.198Z,60.68
2017-05-27T05:43:36.688Z,60.58
2017-05-27T05:44:02.180Z,60.68
2017-05-27T05:44:27.628Z,60.68
2017-05-27T05:44:53.084Z,60.87
2017-05-27T05:45:18.593Z,60.97
2017-05-27T05:45:44.034Z,60.87
2017-05-27T05:46:09.499Z,60.2
2017-05-27T05:46:34.955Z,60.9
2017-05-27T05:47:00.424Z,60.9
2017-05-27T05:47:25.955Z,60.52
2017-05-27T05:47:51.452Z,59.94
2017-05-27T05:48:16.914Z,60.23
2017-05-27T05:48:42.383Z,60.13
2017-05-27T05:49:07.860Z,60.13
2017-05-27T05:49:33.325Z,60.03
2017-05-27T05:49:58.787Z,60.32
2017-05-27T05:50:24.245Z,60.13
2017-05-27T05:50:49.730Z,59.94
2017-05-27T05:51:15.210Z,60.13
2017-05-27T05:51:40.710Z,59.45
2017-05-27T05:52:06.230Z,59.07
2017-05-27T05:52:31.716Z,59.17
2017-05-27T05:52:57.199Z,59.07
2017-05-27T05:53:22.689Z,59.07
2017-05-27T05:53:48.166Z,58.78
2017-05-27T05:54:13.609Z,58.88
2017-05-27T05:54:39.087Z,58.78
2017-05-27T05:55:04.575Z,58.72
2017-05-27T05:55:30.037Z,58.49
2017-05-27T05:55:55.493Z,58.72
2017-05-27T05:56:20.975Z,58.78
2017-05-27T05:56:46.457Z,58.4
2017-05-27T05:57:11.950Z,58.49
2017-05-27T05:57:37.444Z,58.78
2017-05-27T05:58:02.921Z,58.59
2017-05-27T05:58:28.384Z,58.49
2017-05-27T05:58:53.895Z,58.72
2017-05-27T05:59:19.361Z,58.62
2017-05-27T05:59:44.830Z,58.72
2017-05-27T06:00:10.317Z,58.42
2017-05-27T06:00:35.771Z,58.49
2017-05-27T06:01:01.285Z,58.33
2017-05-27T06:01:26.749Z,58.49
2017-05-27T06:01:52.283Z,58.42
2017-05-27T06:02:17.682Z,58.42
2017-05-27T06:02:43.159Z,58.52
2017-05-27T06:03:08.630Z,58.72
2017-05-27T06:03:34.101Z,58.62
2017-05-27T06:03:59.575Z,58.81
2017-05-27T06:04:25.032Z,58.91
2017-05-27T06:04:50.498Z,58.52
2017-05-27T06:05:15.974Z,58.42
2017-05-27T06:05:41.452Z,58.62
2017-05-27T06:06:06.954Z,58.62
2017-05-27T06:06:32.379Z,58.52
2017-05-27T06:06:57.870Z,58.33
2017-05-27T06:07:23.327Z,58.26
2017-05-27T06:07:48.837Z,58.52
2017-05-27T06:08:14.316Z,58.52
2017-05-27T06:08:39.816Z,58.14
2017-05-27T06:09:05.364Z,58.04
2017-05-27T06:09:30.788Z,58.07
2017-05-27T06:09:56.302Z,58.23
2017-05-27T06:10:21.788Z,58.07
2017-05-27T06:10:47.249Z,58.17
2017-05-27T06:11:12.686Z,58.26
2017-05-27T06:11:38.129Z,58.26
2017-05-27T06:12:03.649Z,58.07
2017-05-27T06:12:29.154Z,58.07
2017-05-27T06:12:54.639Z,57.68
2017-05-27T06:13:20.102Z,57.68
2017-05-27T06:13:45.590Z,57.59
2017-05-27T06:14:11.071Z,57.29
2017-05-27T06:14:36.545Z,57.01
2017-05-27T06:15:02.024Z,56.81
2017-05-27T06:15:27.551Z,57.23
2017-05-27T06:15:52.982Z,56.94
2017-05-27T06:16:18.486Z,56.56
2017-05-27T06:16:43.971Z,56.46
2017-05-27T06:17:09.449Z,56.46
2017-05-27T06:17:34.922Z,56.26
2017-05-27T06:18:00.371Z,56.46
2017-05-27T06:18:25.851Z,56.52
2017-05-27T06:18:51.313Z,56.26
2017-05-27T06:19:16.830Z,56.74
2017-05-27T06:19:42.316Z,56.33
2017-05-27T06:20:07.783Z,56.81
2017-05-27T06:20:33.267Z,57.14
2017-05-27T06:20:58.759Z,57.14
2017-05-27T06:21:24.251Z,57.04
2017-05-27T06:21:49.720Z,56.94
2017-05-27T06:22:15.215Z,56.74
2017-05-27T06:22:40.696Z,56.56
2017-05-27T06:23:06.183Z,56.56
2017-05-27T06:23:31.648Z,56.56
2017-05-27T06:23:57.108Z,57.14
2017-05-27T06:24:22.581Z,57.14
2017-05-27T06:24:48.073Z,56.94
2017-05-27T06:25:13.555Z,56.74
2017-05-27T06:25:39.023Z,57.14
2017-05-27T06:26:04.519Z,56.74
2017-05-27T06:26:30.009Z,56.74
2017-05-27T06:26:55.463Z,56.46
2017-05-27T06:27:20.935Z,56.46
2017-05-27T06:27:46.433Z,56.07
2017-05-27T06:28:11.907Z,56.29
2017-05-27T06:28:37.396Z,56.36
2017-05-27T06:29:02.855Z,56.16
2017-05-27T06:29:28.318Z,55.81
2017-05-27T06:29:53.819Z,55.9
2017-05-27T06:30:19.316Z,56.2
2017-05-27T06:30:44.779Z,56
2017-05-27T06:31:10.236Z,55.52
2017-05-27T06:31:35.723Z,55.88
2017-05-27T06:32:01.185Z,55.71
2017-05-27T06:32:26.651Z,55.9
2017-05-27T06:32:52.134Z,56.16
2017-05-27T06:33:17.640Z,55.98
2017-05-27T06:33:43.103Z,55.9
2017-05-27T06:34:08.576Z,56.29
2017-05-27T06:34:34.039Z,56.58
2017-05-27T06:34:59.511Z,56.48
2017-05-27T06:35:25.017Z,56.1
2017-05-27T06:35:50.475Z,56
2017-05-27T06:36:15.942Z,56
2017-05-27T06:36:41.440Z,55.9
2017-05-27T06:37:06.947Z,56.1
2017-05-27T06:37:32.451Z,55.93
2017-05-27T06:37:57.920Z,55.93
2017-05-27T06:38:23.377Z,55.83
2017-05-27T06:38:48.846Z,55.35
2017-05-27T06:39:14.296Z,54.97
2017-05-27T06:39:39.766Z,55.07
2017-05-27T06:40:05.247Z,54.68
2017-05-27T06:40:30.722Z,54.39
2017-05-27T06:40:56.215Z,54
2017-05-27T06:41:21.677Z,54.29
2017-05-27T06:41:47.139Z,54.1
2017-05-27T06:42:12.619Z,54.1
2017-05-27T06:42:38.159Z,54.29
2017-05-27T06:43:03.736Z,54.29
2017-05-27T06:43:29.146Z,54
2017-05-27T06:43:54.623Z,53.91
2017-05-27T06:44:20.144Z,53.91
2017-05-27T06:44:45.650Z,53.71
2017-05-27T06:45:11.141Z,53.42
2017-05-27T06:45:36.658Z,53.71
2017-05-27T06:46:02.147Z,53.52
2017-05-27T06:46:27.623Z,53.33
2017-05-27T06:46:53.121Z,53.71
2017-05-27T06:47:18.582Z,53.42
2017-05-27T06:47:44.062Z,53.71
2017-05-27T06:48:09.524Z,54
2017-05-27T06:48:35.008Z,53.81
2017-05-27T06:49:00.506Z,54.1
2017-05-27T06:49:25.975Z,53.91
2017-05-27T06:49:51.457Z,53.81
2017-05-27T06:50:16.964Z,53.91
2017-05-27T06:50:42.407Z,54.29
2017-05-27T06:51:07.897Z,53.81
2017-05-27T06:51:33.380Z,53.91
2017-05-27T06:51:58.857Z,54.22
2017-05-27T06:52:24.397Z,54.13
2017-05-27T06:52:49.819Z,53.42
2017-05-27T06:53:15.292Z,53.25
2017-05-27T06:53:40.785Z,53.25
2017-05-27T06:54:06.274Z,53.25
2017-05-27T06:54:31.729Z,53.23
2017-05-27T06:54:57.247Z,53.42
2017-05-27T06:55:22.699Z,53.33
2017-05-27T06:55:48.190Z,53.74
2017-05-27T06:56:13.651Z,53.64
2017-05-27T06:56:39.122Z,53.45
2017-05-27T06:57:04.615Z,53.61
2017-05-27T06:57:30.131Z,53.55
2017-05-27T06:57:55.609Z,53.74
2017-05-27T06:58:21.084Z,53.64
2017-05-27T06:58:46.572Z,53.64
2017-05-27T06:59:12.058Z,53.16
2017-05-27T06:59:37.518Z,53.74
2017-05-27T07:00:03.015Z,53.55
2017-05-27T07:00:28.486Z,52.77
2017-05-27T07:00:53.968Z,52.87
2017-05-27T07:01:19.454Z,53.55
2017-05-27T07:01:44.940Z,53.25
2017-05-27T07:02:10.433Z,53.74
2017-05-27T07:02:35.889Z,53.25
2017-05-27T07:03:01.375Z,53.06
2017-05-27T07:03:26.831Z,53.16
2017-05-27T07:03:52.293Z,52.87
2017-05-27T07:04:17.778Z,52.97
2017-05-27T07:04:43.270Z,52.77
2017-05-27T07:05:08.770Z,52.77
2017-05-27T07:05:34.245Z,52.77
2017-05-27T07:05:59.725Z,52.58
2017-05-27T07:06:25.201Z,51.71
2017-05-27T07:06:50.663Z,52
2017-05-27T07:07:16.153Z,52.09
2017-05-27T07:07:41.639Z,52.29
2017-05-27T07:08:07.116Z,52.02
2017-05-27T07:08:32.585Z,52.09
2017-05-27T07:08:58.056Z,52
2017-05-27T07:09:23.566Z,52.09
2017-05-27T07:09:49.040Z,52.29
2017-05-27T07:10:14.537Z,52.19
2017-05-27T07:10:39.998Z,52.29
2017-05-27T07:11:05.436Z,52
2017-05-27T07:11:30.887Z,52.29
2017-05-27T07:11:56.358Z,52.09
2017-05-27T07:12:21.839Z,52.02
2017-05-27T07:12:47.293Z,51.93
2017-05-27T07:13:12.773Z,52.31
2017-05-27T07:13:38.255Z,52.22
2017-05-27T07:14:03.737Z,52.31
2017-05-27T07:14:29.193Z,52.02
2017-05-27T07:14:54.668Z,52.02
2017-05-27T07:15:20.152Z,52.12
2017-05-27T07:15:45.662Z,52.41
2017-05-27T07:16:11.133Z,52.12
2017-05-27T07:16:36.607Z,51.64
2017-05-27T07:17:02.104Z,51.83
2017-05-27T07:17:27.571Z,52.24
2017-05-27T07:17:53.070Z,52.12
2017-05-27T07:18:18.537Z,51.56
2017-05-27T07:18:43.983Z,51.56
2017-05-27T07:19:09.466Z,51.28
2017-05-27T07:19:34.933Z,51.28
2017-05-27T07:20:00.407Z,51.18
2017-05-27T07:20:25.878Z,51.28
2017-05-27T07:20:51.356Z,51.18
2017-05-27T07:21:16.818Z,51.28
2017-05-27T07:21:42.316Z,51.08
2017-05-27T07:22:07.798Z,51.66
2017-05-27T07:22:33.297Z,51.37
2017-05-27T07:22:58.783Z,50.89
2017-05-27T07:23:24.279Z,50.98
2017-05-27T07:23:49.766Z,50.79
2017-05-27T07:24:15.244Z,50.79
2017-05-27T07:24:40.696Z,50.6
2017-05-27T07:25:06.183Z,50.7
2017-05-27T07:25:31.623Z,50.98
2017-05-27T07:25:57.115Z,50.6
2017-05-27T07:26:22.586Z,50.98
2017-05-27T07:26:48.067Z,51.01
2017-05-27T07:27:13.562Z,50.7
2017-05-27T07:27:39.101Z,50.92
2017-05-27T07:28:04.573Z,50.82
2017-05-27T07:28:30.042Z,50.14
2017-05-27T07:28:55.495Z,50.43
2017-05-27T07:29:20.987Z,50.43
2017-05-27T07:29:46.492Z,50.21
2017-05-27T07:30:11.964Z,50.52
2017-05-27T07:30:37.445Z,50.62
2017-05-27T07:31:02.925Z,50.4
2017-05-27T07:31:28.377Z,50.43
2017-05-27T07:31:53.880Z,50.33
2017-05-27T07:32:19.346Z,50.52
2017-05-27T07:32:44.824Z,50.52
2017-05-27T07:33:10.282Z,50.62
2017-05-27T07:33:35.768Z,50.72
2017-05-27T07:34:01.237Z,50.62
2017-05-27T07:34:26.717Z,50.62
2017-05-27T07:34:52.189Z,50.52
2017-05-27T07:35:17.661Z,50.52
2017-05-27T07:35:43.130Z,50.52
2017-05-27T07:36:08.627Z,50.33
2017-05-27T07:36:34.113Z,50.43
2017-05-27T07:36:59.564Z,50.24
2017-05-27T07:37:25.033Z,50.33
2017-05-27T07:37:50.506Z,50.33
2017-05-27T07:38:15.980Z,50.14
2017-05-27T07:38:41.470Z,50.24
2017-05-27T07:39:06.967Z,50.72
2017-05-27T07:39:32.448Z,50.74
2017-05-27T07:39:57.921Z,50.74
2017-05-27T07:40:23.410Z,50.07
2017-05-27T07:40:48.909Z,50.07
2017-05-27T07:41:14.423Z,49.87
2017-05-27T07:41:39.926Z,50.07
2017-05-27T07:42:05.424Z,49.49
2017-05-27T07:42:30.890Z,49.39
2017-05-27T07:42:56.394Z,49.29
2017-05-27T07:43:21.860Z,49.39
2017-05-27T07:43:47.340Z,49.39
2017-05-27T07:44:12.879Z,49.58
2017-05-27T07:44:38.367Z,49.87
2017-05-27T07:45:03.839Z,49.1
2017-05-27T07:45:29.297Z,49.49
2017-05-27T07:45:54.779Z,49.68
2017-05-27T07:46:20.249Z,49.77
2017-05-27T07:46:45.760Z,49.68
2017-05-27T07:47:11.248Z,49.19
2017-05-27T07:47:36.734Z,49.29
2017-05-27T07:48:02.192Z,49.1
2017-05-27T07:48:27.681Z,49
2017-05-27T07:48:53.199Z,49.1
2017-05-27T07:49:18.656Z,49.19
2017-05-27T07:49:44.129Z,48.83
2017-05-27T07:50:09.611Z,49.02
2017-05-27T07:50:35.069Z,49.22
2017-05-27T07:51:00.553Z,49.22
2017-05-27T07:51:26.031Z,48.44
2017-05-27T07:51:51.491Z,48.64
2017-05-27T07:52:16.983Z,48.83
2017-05-27T07:52:42.460Z,48.74
2017-05-27T07:53:07.956Z,48.15
2017-05-27T07:53:33.469Z,48.44
2017-05-27T07:53:58.943Z,48.83
2017-05-27T07:54:24.473Z,48.93
2017-05-27T07:54:49.930Z,48.35
2017-05-27T07:55:15.406Z,48.44
2017-05-27T07:55:40.896Z,48.25
2017-05-27T07:56:06.412Z,47.77
2017-05-27T07:56:31.879Z,47.96
2017-05-27T07:56:57.378Z,47.47
2017-05-27T07:57:22.856Z,47.3
2017-05-27T07:57:48.317Z,46.92
2017-05-27T07:58:13.822Z,47.11
2017-05-27T07:58:39.305Z,47.3
2017-05-27T07:59:04.800Z,47.3
2017-05-27T07:59:30.289Z,47.02
2017-05-27T07:59:55.751Z,47.3
2017-05-27T08:00:21.246Z,47.02
2017-05-27T08:00:46.727Z,47.02
2017-05-27T08:01:12.190Z,47.02
2017-05-27T08:01:37.667Z,47.3
2017-05-27T08:02:03.189Z,47.3
2017-05-27T08:02:28.630Z,47.02
2017-05-27T08:02:54.124Z,47.3
2017-05-27T08:03:19.616Z,46.72
2017-05-27T08:03:45.118Z,46.04
2017-05-27T08:04:10.603Z,45.56
2017-05-27T08:04:36.109Z,45.95
2017-05-27T08:05:01.577Z,46.04
2017-05-27T08:05:27.063Z,45.65
2017-05-27T08:05:52.521Z,45.85
2017-05-27T08:06:18.020Z,45.75
2017-05-27T08:06:43.470Z,46.14
2017-05-27T08:07:08.944Z,46.33
2017-05-27T08:07:34.418Z,46.07
2017-05-27T08:07:59.883Z,46.07
2017-05-27T08:08:25.405Z,45.68
2017-05-27T08:08:50.855Z,44.81
2017-05-27T08:09:16.324Z,44.81
2017-05-27T08:09:41.795Z,45.1
2017-05-27T08:10:07.281Z,45.1
2017-05-27T08:10:32.821Z,44.81
2017-05-27T08:10:58.303Z,44.32
2017-05-27T08:11:23.770Z,44.32
2017-05-27T08:11:49.269Z,44.23
2017-05-27T08:12:14.727Z,44.32
2017-05-27T08:12:40.218Z,44.15
2017-05-27T08:13:05.718Z,44.15
2017-05-27T08:13:31.211Z,44.54
2017-05-27T08:13:56.716Z,43.76
2017-05-27T08:14:22.163Z,43.95
2017-05-27T08:14:47.625Z,44.15
2017-05-27T08:15:13.090Z,43.66
2017-05-27T08:15:38.544Z,43.76
2017-05-27T08:16:04.016Z,43.76
2017-05-27T08:16:29.489Z,43.27
2017-05-27T08:16:54.979Z,44.05
2017-05-27T08:17:20.471Z,44.05
2017-05-27T08:17:45.929Z,43.66
2017-05-27T08:18:11.420Z,43.86
2017-05-27T08:18:36.894Z,43.86
2017-05-27T08:19:02.347Z,43.76
2017-05-27T08:19:27.817Z,43.18
2017-05-27T08:19:53.292Z,43.27
2017-05-27T08:20:18.757Z,43.59
2017-05-27T08:20:44.212Z,43.27
2017-05-27T08:21:09.693Z,43.3
2017-05-27T08:21:35.161Z,43.2
2017-05-27T08:22:00.647Z,42.81
2017-05-27T08:22:26.168Z,42.71
2017-05-27T08:22:51.668Z,42.61
2017-05-27T08:23:17.171Z,42.13
2017-05-27T08:23:42.641Z,42.03
2017-05-27T08:24:08.159Z,42.52
2017-05-27T08:24:33.635Z,42.69
2017-05-27T08:24:59.122Z,42.81
2017-05-27T08:25:24.602Z,43.01
2017-05-27T08:25:50.087Z,43.68
2017-05-27T08:26:15.585Z,43.4
2017-05-27T08:26:41.035Z,43.1
2017-05-27T08:27:06.487Z,43.01
2017-05-27T08:27:31.960Z,43.1
2017-05-27T08:27:57.413Z,42.71
2017-05-27T08:28:22.909Z,43.01
2017-05-27T08:28:48.381Z,42.71
2017-05-27T08:29:13.879Z,42.61
2017-05-27T08:29:39.371Z,42.81
2017-05-27T08:30:04.871Z,42.71
2017-05-27T08:30:30.351Z,42.61
2017-05-27T08:30:55.877Z,42.61
2017-05-27T08:31:21.304Z,42.69
2017-05-27T08:31:46.783Z,42.81
2017-05-27T08:32:12.284Z,43.1
2017-05-27T08:32:37.702Z,43.1
2017-05-27T08:33:03.160Z,43.01
2017-05-27T08:33:28.653Z,42.91
2017-05-27T08:33:54.124Z,42.61
2017-05-27T08:34:19.611Z,42.71
2017-05-27T08:34:45.087Z,42.71
2017-05-27T08:35:10.586Z,42.81
2017-05-27T08:35:36.067Z,42.3
2017-05-27T08:36:01.564Z,42.23
2017-05-27T08:36:27.059Z,42.23
2017-05-27T08:36:52.534Z,42.43
2017-05-27T08:37:18.060Z,42.81
2017-05-27T08:37:43.518Z,42.71
2017-05-27T08:38:09.010Z,42.33
2017-05-27T08:38:34.488Z,42.43
2017-05-27T08:38:59.929Z,42.33
2017-05-27T08:39:25.434Z,42.61
2017-05-27T08:39:50.923Z,42.71
2017-05-27T08:40:16.407Z,42.33
2017-05-27T08:40:41.885Z,42.23
2017-05-27T08:41:07.372Z,41.96
2017-05-27T08:41:32.874Z,41.64
2017-05-27T08:41:58.343Z,41.96
2017-05-27T08:42:23.822Z,41.96
2017-05-27T08:42:49.321Z,41.96
2017-05-27T08:43:14.786Z,41.96
2017-05-27T08:43:40.261Z,41.96
2017-05-27T08:44:05.735Z,41.57
2017-05-27T08:44:31.227Z,41.47
2017-05-27T08:44:56.697Z,41.47
2017-05-27T08:45:22.160Z,41.86
2017-05-27T08:45:47.643Z,42.05
2017-05-27T08:46:13.134Z,41.96
2017-05-27T08:46:38.604Z,42.05
2017-05-27T08:47:04.053Z,41.77
2017-05-27T08:47:29.544Z,42.05
2017-05-27T08:47:54.991Z,41.57
2017-05-27T08:48:20.482Z,41.38
2017-05-27T08:48:45.952Z,41.38
2017-05-27T08:49:11.419Z,40.79
2017-05-27T08:49:36.884Z,40.41
2017-05-27T08:50:02.374Z,40.21
2017-05-27T08:50:27.865Z,40.21
2017-05-27T08:50:53.354Z,40.11
2017-05-27T08:51:18.845Z,40.41
2017-05-27T08:51:44.315Z,40.69
2017-05-27T08:52:09.786Z,40.89
2017-05-27T08:52:35.265Z,40.69
2017-05-27T08:53:00.729Z,40.69
2017-05-27T08:53:26.167Z,41.08
2017-05-27T08:53:51.637Z,40.89
2017-05-27T08:54:17.147Z,40.89
2017-05-27T08:54:42.607Z,41.18
2017-05-27T08:55:08.095Z,41.2
2017-05-27T08:55:33.555Z,39.75
2017-05-27T08:55:59.028Z,39.65
2017-05-27T08:56:24.527Z,39.65
2017-05-27T08:56:50.018Z,39.55
2017-05-27T08:57:15.496Z,39.84
2017-05-27T08:57:40.974Z,39.65
2017-05-27T08:58:06.484Z,40.03
2017-05-27T08:58:31.972Z,40.13
2017-05-27T08:58:57.465Z,40.23
2017-05-27T08:59:22.953Z,40.13
2017-05-27T08:59:48.418Z,40.62
2017-05-27T09:00:13.896Z,40.13
2017-05-27T09:00:39.415Z,40.03
2017-05-27T09:01:04.880Z,39.45
2017-05-27T09:01:30.372Z,39.26
2017-05-27T09:01:55.846Z,38.96
2017-05-27T09:02:21.300Z,39.45
2017-05-27T09:02:46.803Z,39.55
2017-05-27T09:03:12.274Z,39.36
2017-05-27T09:03:37.748Z,39.55
2017-05-27T09:04:03.237Z,39.45
2017-05-27T09:04:28.706Z,39.55
2017-05-27T09:04:54.190Z,39.45
2017-05-27T09:05:19.663Z,39.16
2017-05-27T09:05:45.165Z,39.36
2017-05-27T09:06:10.656Z,39.65
2017-05-27T09:06:36.178Z,39.75
2017-05-27T09:07:01.686Z,40.03
2017-05-27T09:07:27.170Z,40.13
2017-05-27T09:07:52.643Z,40.03
2017-05-27T09:08:18.096Z,40.03
2017-05-27T09:08:43.565Z,39.65
2017-05-27T09:09:09.053Z,39.65
2017-05-27T09:09:34.518Z,39.55
2017-05-27T09:09:59.998Z,39.65
2017-05-27T09:10:25.476Z,39.75
2017-05-27T09:10:50.988Z,39.45
2017-05-27T09:11:16.485Z,39.45
2017-05-27T09:11:41.941Z,39.55
2017-05-27T09:12:07.418Z,39.45
2017-05-27T09:12:32.894Z,39.65
2017-05-27T09:12:58.363Z,39.55
2017-05-27T09:13:23.881Z,39.45
2017-05-27T09:13:49.350Z,39.45
2017-05-27T09:14:14.806Z,39.55
2017-05-27T09:14:40.274Z,39.65
2017-05-27T09:15:05.754Z,39.75
2017-05-27T09:15:31.200Z,39.75
2017-05-27T09:15:56.673Z,39.94
2017-05-27T09:16:22.130Z,40.03
2017-05-27T09:16:47.609Z,39.45
2017-05-27T09:17:13.062Z,39.36
2017-05-27T09:17:38.536Z,39.65
2017-05-27T09:18:04.023Z,39.36
2017-05-27T09:18:29.500Z,39.65
2017-05-27T09:18:54.991Z,39.55
2017-05-27T09:19:20.507Z,39.65
2017-05-27T09:19:45.956Z,39.65
2017-05-27T09:20:11.416Z,39.75
2017-05-27T09:20:36.894Z,39.94
2017-05-27T09:21:02.398Z,39.94
2017-05-27T09:21:27.847Z,39.75
2017-05-27T09:21:53.324Z,39.55
2017-05-27T09:22:18.806Z,39.65
2017-05-27T09:22:44.288Z,39.75
2017-05-27T09:23:09.809Z,39.65
2017-05-27T09:23:35.294Z,39.57
2017-05-27T09:24:00.791Z,39.47
2017-05-27T09:24:26.251Z,39.57
2017-05-27T09:24:51.731Z,39.47
2017-05-27T09:25:17.225Z,39.67
2017-05-27T09:25:42.716Z,39.67
2017-05-27T09:26:08.214Z,39.67
2017-05-27T09:26:33.694Z,39.18
2017-05-27T09:26:59.173Z,39.57
2017-05-27T09:27:24.641Z,39.47
2017-05-27T09:27:50.110Z,39.76
2017-05-27T09:28:15.600Z,38.5
2017-05-27T09:28:41.082Z,38.5
2017-05-27T09:29:06.559Z,38.4
2017-05-27T09:29:32.061Z,38.6
2017-05-27T09:29:57.525Z,38.96
2017-05-27T09:30:23.003Z,39.65
2017-05-27T09:30:48.474Z,39.57
2017-05-27T09:31:13.968Z,39.55
2017-05-27T09:31:39.461Z,39.55
2017-05-27T09:32:04.949Z,39.55
2017-05-27T09:32:30.419Z,39.55
2017-05-27T09:32:55.882Z,39.57
2017-05-27T09:33:21.380Z,39.57
2017-05-27T09:33:46.866Z,39.57
2017-05-27T09:34:12.345Z,39.67
2017-05-27T09:34:37.824Z,39.57
2017-05-27T09:35:03.344Z,39.57
2017-05-27T09:35:28.880Z,39.57
2017-05-27T09:35:54.355Z,39.47
2017-05-27T09:36:19.847Z,39.08
2017-05-27T09:36:45.342Z,39.08
2017-05-27T09:37:10.818Z,39.18
2017-05-27T09:37:36.333Z,39.18
2017-05-27T09:38:01.823Z,38.6
2017-05-27T09:38:27.308Z,38.6
2017-05-27T09:38:52.811Z,38.5
2017-05-27T09:39:18.321Z,38.5
2017-05-27T09:39:43.781Z,38.11
2017-05-27T09:40:09.251Z,38.21
2017-05-27T09:40:34.714Z,38.52
2017-05-27T09:41:00.193Z,38.32
2017-05-27T09:41:25.694Z,38.4
2017-05-27T09:41:51.190Z,38.62
2017-05-27T09:42:16.678Z,37.93
2017-05-27T09:42:42.174Z,38.62
2017-05-27T09:43:07.640Z,38.01
2017-05-27T09:43:33.108Z,38.31
2017-05-27T09:43:58.602Z,38.5
2017-05-27T09:44:24.060Z,38.62
2017-05-27T09:44:49.557Z,38.62
2017-05-27T09:45:15.048Z,38.6
2017-05-27T09:45:40.535Z,38.5
2017-05-27T09:46:06.028Z,38.13
2017-05-27T09:46:31.525Z,38.42
2017-05-27T09:46:56.984Z,37.72
2017-05-27T09:47:22.466Z,38.4
2017-05-27T09:47:47.941Z,37.93
2017-05-27T09:48:13.428Z,37.43
2017-05-27T09:48:38.928Z,37.24
2017-05-27T09:49:04.400Z,37.74
2017-05-27T09:49:29.892Z,37.64
2017-05-27T09:49:55.366Z,37.54
2017-05-27T09:50:20.854Z,37.74
2017-05-27T09:50:46.327Z,38.62
2017-05-27T09:51:11.808Z,38.62
2017-05-27T09:51:37.282Z,38.81
2017-05-27T09:52:02.757Z,38.71
2017-05-27T09:52:28.264Z,38.81
2017-05-27T09:52:53.741Z,38.62
2017-05-27T09:53:19.201Z,37.93
2017-05-27T09:53:44.700Z,37.45
2017-05-27T09:54:10.218Z,37.74
2017-05-27T09:54:35.713Z,37.93
2017-05-27T09:55:01.193Z,37.45
2017-05-27T09:55:26.696Z,37.35
2017-05-27T09:55:52.171Z,37.84
2017-05-27T09:56:17.631Z,37.74
2017-05-27T09:56:43.160Z,37.84
2017-05-27T09:57:08.647Z,37.93
2017-05-27T09:57:34.117Z,38.05
2017-05-27T09:57:59.589Z,37.84
2017-05-27T09:58:25.054Z,37.08
2017-05-27T09:58:50.528Z,36.98
2017-05-27T09:59:16.002Z,37.06
2017-05-27T09:59:41.466Z,36.96
2017-05-27T10:00:06.954Z,37.16
2017-05-27T10:00:32.424Z,37.37
2017-05-27T10:00:57.896Z,37.18
2017-05-27T10:01:23.382Z,36.98
2017-05-27T10:01:48.860Z,37.18
2017-05-27T10:02:14.335Z,37.18
2017-05-27T10:02:39.820Z,37.18
2017-05-27T10:03:05.267Z,36.79
2017-05-27T10:03:30.760Z,36.69
2017-05-27T10:03:56.242Z,36.98
2017-05-27T10:04:21.741Z,36.98
2017-05-27T10:04:47.237Z,37.27
2017-05-27T10:05:12.704Z,37.37
2017-05-27T10:05:38.171Z,37.18
2017-05-27T10:06:03.640Z,37.46
2017-05-27T10:06:29.115Z,37.46
2017-05-27T10:06:54.605Z,37.18
2017-05-27T10:07:20.108Z,37.37
2017-05-27T10:07:45.592Z,37.27
2017-05-27T10:08:11.084Z,37.37
2017-05-27T10:08:36.561Z,37.37
2017-05-27T10:09:02.025Z,37.18
2017-05-27T10:09:27.483Z,37.27
2017-05-27T10:09:52.997Z,37.08
2017-05-27T10:10:18.475Z,36.98
2017-05-27T10:10:43.991Z,36.88
2017-05-27T10:11:09.451Z,36.59
2017-05-27T10:11:34.924Z,36.88
2017-05-27T10:12:00.411Z,36.98
2017-05-27T10:12:25.876Z,37.08
2017-05-27T10:12:51.361Z,36.49
2017-05-27T10:13:16.817Z,36.79
2017-05-27T10:13:42.292Z,36.2
2017-05-27T10:14:07.789Z,36.2
2017-05-27T10:14:33.277Z,36.3
2017-05-27T10:14:58.769Z,36.4
2017-05-27T10:15:24.264Z,36.4
2017-05-27T10:15:49.757Z,36.2
2017-05-27T10:16:15.248Z,35.71